createdAt,value
2023-03-28T00:00:40.490Z,6.00
2023-03-28T00:05:42.944Z,6.10
2023-03-28T00:10:47.326Z,6.10
2023-03-28T00:15:49.622Z,6.10
2023-03-28T00:20:51.853Z,6.00
2023-03-28T00:25:55.645Z,6.00
2023-03-28T00:31:03.654Z,5.80
2023-03-28T00:36:06.614Z,5.70
2023-03-28T00:41:10.678Z,5.70
2023-03-28T00:46:19.120Z,5.60
2023-03-28T00:51:25.380Z,5.50
2023-03-28T00:56:32.959Z,5.40
2023-03-28T01:01:37.333Z,5.40
2023-03-28T01:06:44.713Z,5.30
2023-03-28T01:11:49.150Z,5.30
2023-03-28T01:16:51.362Z,5.20
2023-03-28T01:22:23.401Z,5.20
2023-03-28T01:27:33.382Z,5.20
2023-03-28T01:33:12.029Z,5.10
2023-03-28T01:38:21.270Z,5.10
2023-03-28T01:43:33.194Z,5.10
2023-03-28T01:48:47.501Z,5.20
2023-03-28T01:54:00.614Z,5.20
2023-03-28T01:59:09.583Z,5.20
2023-03-28T02:04:20.040Z,5.30
2023-03-28T02:09:26.411Z,5.40
2023-03-28T02:14:36.562Z,5.50
2023-03-28T02:19:39.376Z,5.50
2023-03-28T02:24:42.948Z,5.60
2023-03-28T02:29:45.224Z,5.60
2023-03-28T02:34:49.347Z,5.70
2023-03-28T02:40:05.645Z,5.80
2023-03-28T02:45:22.621Z,5.90
2023-03-28T02:50:30.068Z,5.90
2023-03-28T02:55:39.836Z,5.80
2023-03-28T03:00:42.388Z,5.80
2023-03-28T03:05:44.691Z,5.70
2023-03-28T03:10:48.417Z,5.70
2023-03-28T03:15:51.191Z,5.70
2023-03-28T03:20:53.859Z,5.70
2023-03-28T03:25:57.691Z,5.70
2023-03-28T03:31:00.255Z,5.70
2023-03-28T03:36:02.974Z,5.60
2023-03-28T03:41:05.677Z,5.60
2023-03-28T03:46:09.433Z,5.60
2023-03-28T03:51:11.643Z,5.60
2023-03-28T03:56:13.796Z,5.60
2023-03-28T04:01:17.444Z,5.60
2023-03-28T04:06:19.527Z,5.70
2023-03-28T04:11:21.644Z,5.70
2023-03-28T04:16:25.200Z,5.70
2023-03-28T04:21:30.399Z,5.70
2023-03-28T04:26:36.390Z,5.70
2023-03-28T04:31:40.654Z,5.70
2023-03-28T04:36:42.942Z,5.70
2023-03-28T04:41:45.071Z,5.70
2023-03-28T04:46:48.673Z,5.80
2023-03-28T04:51:50.864Z,5.90
2023-03-28T04:56:53.453Z,5.90
2023-03-28T05:01:57.181Z,5.90
2023-03-28T05:06:59.483Z,6.00
2023-03-28T05:12:01.881Z,6.10
2023-03-28T05:17:05.436Z,6.10
2023-03-28T05:22:07.564Z,6.10
2023-03-28T05:27:09.659Z,6.10
2023-03-28T05:32:13.195Z,6.10
2023-03-28T05:37:15.474Z,6.10
2023-03-28T05:42:17.840Z,6.10
2023-03-28T05:47:21.395Z,6.30
2023-03-28T05:52:23.568Z,6.50
2023-03-28T05:57:25.888Z,6.70
2023-03-28T06:02:29.600Z,6.80
2023-03-28T06:13:08.047Z,6.90
2023-03-28T06:18:12.148Z,6.90
2023-03-28T06:23:14.568Z,6.80
2023-03-28T06:28:17.170Z,6.70
2023-03-28T06:33:45.384Z,6.70
2023-03-28T06:38:48.018Z,6.70
2023-03-28T06:43:50.574Z,6.90
2023-03-28T06:48:54.540Z,7.00
2023-03-28T06:54:06.539Z,7.60
2023-03-28T06:59:08.934Z,8.70
2023-03-28T07:04:13.022Z,10.00
2023-03-28T07:09:15.524Z,11.30
2023-03-28T07:14:33.889Z,12.50
2023-03-28T07:19:37.927Z,13.60
2023-03-28T07:24:40.550Z,14.70
2023-03-28T07:29:43.243Z,15.60
2023-03-28T07:35:05.547Z,16.50
2023-03-28T07:40:13.604Z,17.40
2023-03-28T07:45:19.091Z,18.10
2023-03-28T07:50:24.885Z,18.50
2023-03-28T07:55:48.406Z,18.90
2023-03-28T08:00:57.075Z,19.30
2023-03-28T08:06:02.650Z,19.80
2023-03-28T08:11:05.045Z,20.10
2023-03-28T08:16:08.259Z,20.40
2023-03-28T08:21:12.007Z,20.70
2023-03-28T08:26:14.132Z,20.80
2023-03-28T08:31:17.665Z,20.80
2023-03-28T08:36:23.711Z,20.80
2023-03-28T08:41:46.271Z,20.70
2023-03-28T08:46:54.735Z,20.70
2023-03-28T08:52:01.419Z,20.50
2023-03-28T08:57:06.550Z,20.20
2023-03-28T09:02:17.960Z,19.80
2023-03-28T09:07:33.393Z,19.80
2023-03-28T09:12:49.619Z,20.00
2023-03-28T09:18:06.849Z,19.90
2023-03-28T09:23:22.171Z,19.60
2023-03-28T09:28:34.600Z,18.90
2023-03-28T09:33:39.732Z,18.30
2023-03-28T09:38:47.956Z,17.70
2023-03-28T09:43:54.184Z,16.90
2023-03-28T09:48:56.494Z,16.10
2023-03-28T09:54:06.251Z,15.50
2023-03-28T09:59:13.162Z,15.30
2023-03-28T10:04:18.206Z,15.30
2023-03-28T10:09:25.313Z,15.20
2023-03-28T10:14:33.195Z,15.00
2023-03-28T10:19:38.531Z,14.70
2023-03-28T10:24:46.081Z,14.40
2023-03-28T10:29:48.359Z,14.20
2023-03-28T10:35:00.774Z,14.00
2023-03-28T10:40:07.002Z,13.80
2023-03-28T10:45:20.808Z,13.70
2023-03-28T10:50:36.649Z,13.50
2023-03-28T10:55:49.040Z,13.40
2023-03-28T11:00:55.971Z,13.40
2023-03-28T11:06:09.984Z,13.30
2023-03-28T11:11:33.398Z,13.50
2023-03-28T11:16:47.653Z,13.70
2023-03-28T11:21:56.040Z,13.70
2023-03-28T11:27:15.623Z,13.60
2023-03-28T11:32:21.986Z,13.50
2023-03-28T11:37:31.111Z,13.50
2023-03-28T11:42:39.916Z,13.40
2023-03-28T11:47:47.804Z,13.40
2023-03-28T11:52:55.178Z,13.30
2023-03-28T11:58:02.481Z,13.10
2023-03-28T12:03:09.345Z,12.90
2023-03-28T12:08:16.244Z,12.70
2023-03-28T12:13:27.296Z,12.50
2023-03-28T12:18:34.567Z,12.50
2023-03-28T12:23:43.425Z,12.40
2023-03-28T12:28:51.377Z,12.30
2023-03-28T12:34:01.522Z,12.20
2023-03-28T12:39:11.016Z,12.20
2023-03-28T12:44:22.198Z,12.30
2023-03-28T12:49:35.146Z,12.30
2023-03-28T12:54:55.012Z,12.40
2023-03-28T13:00:17.607Z,12.50
2023-03-28T13:05:26.978Z,12.60
2023-03-28T13:10:35.503Z,12.80
2023-03-28T13:15:55.231Z,13.00
2023-03-28T13:20:59.996Z,13.10
2023-03-28T13:26:04.760Z,13.20
2023-03-28T13:31:11.980Z,13.30
2023-03-28T13:36:19.251Z,13.40
2023-03-28T13:41:51.928Z,13.70
2023-03-28T13:46:57.087Z,13.70
2023-03-28T13:52:04.277Z,13.60
2023-03-28T13:57:12.195Z,13.50
2023-03-28T14:02:18.455Z,13.40
2023-03-28T14:07:25.965Z,13.30
2023-03-28T14:12:30.669Z,13.20
2023-03-28T14:17:50.608Z,13.20
2023-03-28T14:23:00.360Z,13.10
2023-03-28T14:28:16.027Z,13.10
2023-03-28T14:33:22.200Z,12.90
2023-03-28T14:38:31.068Z,12.80
2023-03-28T14:43:43.808Z,12.70
2023-03-28T14:48:47.891Z,12.70
2023-03-28T14:53:51.410Z,12.60
2023-03-28T14:59:00.320Z,12.70
2023-03-28T15:04:13.722Z,12.70
2023-03-28T15:09:28.172Z,12.70
2023-03-28T15:14:38.873Z,12.70
2023-03-28T15:20:11.853Z,12.70
2023-03-28T15:31:22.953Z,12.50
2023-03-28T15:36:31.672Z,12.40
2023-03-28T15:41:45.261Z,12.40
2023-03-28T15:46:47.716Z,12.30
2023-03-28T15:51:53.518Z,12.30
2023-03-28T15:56:57.373Z,12.30
2023-03-28T16:02:31.126Z,12.20
2023-03-28T16:07:36.725Z,12.10
2023-03-28T16:12:39.143Z,12.00
2023-03-28T16:17:42.460Z,11.90
2023-03-28T16:22:46.938Z,11.70
2023-03-28T16:27:49.113Z,11.60
2023-03-28T16:32:51.287Z,11.50
2023-03-28T16:37:55.514Z,11.50
2023-03-28T16:42:57.734Z,11.40
2023-03-28T16:47:59.943Z,11.30
2023-03-28T16:53:03.432Z,11.20
2023-03-28T16:58:05.604Z,11.20
2023-03-28T17:03:07.865Z,11.20
2023-03-28T17:08:11.508Z,11.10
2023-03-28T17:13:14.266Z,11.10
2023-03-28T17:18:16.771Z,11.00
2023-03-28T17:23:20.271Z,10.90
2023-03-28T17:28:24.572Z,10.80
2023-03-28T17:33:27.786Z,10.80
2023-03-28T17:38:33.317Z,10.70
2023-03-28T17:43:37.129Z,10.70
2023-03-28T17:48:42.870Z,10.60
2023-03-28T17:53:49.530Z,10.60
2023-03-28T17:58:53.534Z,10.60
2023-03-28T18:03:57.909Z,10.50
2023-03-28T18:09:05.718Z,10.60
2023-03-28T18:14:08.530Z,10.50
2023-03-28T18:19:10.876Z,10.40
2023-03-28T18:24:16.137Z,10.30
2023-03-28T18:29:18.501Z,10.20
2023-03-28T18:34:20.661Z,10.00
2023-03-28T18:39:24.222Z,9.90
2023-03-28T18:44:26.371Z,9.80
2023-03-28T18:49:28.522Z,9.70
2023-03-28T18:54:33.761Z,9.60
2023-03-28T18:59:39.304Z,9.60
2023-03-28T19:04:41.827Z,9.60
2023-03-28T19:09:45.454Z,9.60
2023-03-28T19:14:49.193Z,9.60
2023-03-28T19:19:51.495Z,9.50
2023-03-28T19:24:55.130Z,9.50
2023-03-28T19:29:57.406Z,9.40
2023-03-28T19:34:59.611Z,9.30
2023-03-28T19:40:03.375Z,9.20
2023-03-28T19:45:06.778Z,9.00
2023-03-28T19:50:10.150Z,9.00
2023-03-28T19:55:14.190Z,8.80
2023-03-28T20:00:17.192Z,8.70
2023-03-28T20:05:19.339Z,8.60
2023-03-28T20:10:23.011Z,8.50
2023-03-28T20:15:25.944Z,8.40
2023-03-28T20:20:28.242Z,8.30
2023-03-28T20:25:31.795Z,8.10
2023-03-28T20:30:33.861Z,7.90
2023-03-28T20:35:36.039Z,7.80
2023-03-28T20:40:41.036Z,7.70
2023-03-28T20:45:43.219Z,7.70
2023-03-28T20:50:46.728Z,7.60
2023-03-28T20:56:00.187Z,7.60
2023-03-28T21:01:02.874Z,7.60
2023-03-28T21:06:05.841Z,7.60
2023-03-28T21:11:09.447Z,7.50
2023-03-28T21:16:13.072Z,7.50
2023-03-28T21:21:17.344Z,7.50
2023-03-28T21:26:22.908Z,7.50
2023-03-28T21:31:26.956Z,7.40
2023-03-28T21:36:29.568Z,7.40
2023-03-28T21:41:33.096Z,7.30
2023-03-28T21:46:35.291Z,7.30
2023-03-28T21:51:37.547Z,7.30
2023-03-28T21:56:41.091Z,7.20
2023-03-28T22:01:43.358Z,7.20
2023-03-28T22:06:45.511Z,7.20
2023-03-28T22:11:49.193Z,7.20
2023-03-28T22:16:51.383Z,7.10
2023-03-28T22:21:53.496Z,7.10
2023-03-28T22:26:57.084Z,7.10
2023-03-28T22:31:59.170Z,7.10
2023-03-28T22:37:01.278Z,7.10
2023-03-28T22:42:04.972Z,7.10
2023-03-28T22:47:07.279Z,7.10
2023-03-28T22:52:09.465Z,7.10
2023-03-28T22:57:13.084Z,7.10
2023-03-28T23:02:15.210Z,7.10
2023-03-28T23:07:17.519Z,7.10
2023-03-28T23:12:21.099Z,7.10
2023-03-28T23:17:23.262Z,7.20
2023-03-28T23:22:25.425Z,7.20
2023-03-28T23:27:29.112Z,7.20
2023-03-28T23:32:31.233Z,7.20
2023-03-28T23:37:33.433Z,7.20
2023-03-28T23:42:36.986Z,7.20
2023-03-28T23:47:39.208Z,7.20
2023-03-28T23:52:41.397Z,7.20
2023-03-28T23:57:44.958Z,7.20
